Ride Results

TMSR Meander Valley Pink Ride (19-05-2012)
Ride distance: 80.0 km

Outcomes - TMSR Meander Valley Pink Ride (19-05-2012)
Division No. of Entries Retired / DNE Completed Withdrawn Ineligible V/O Percentage Completed
HW 11 - 7 2 - 2 63.64%
MW 26 - 21 1 - 4 80.77%
LW 12 - 10 - - 2 83.33%
JN 12 - 7 1 - 4 58.33%
Totals 61 - 45 4 - 12 73.77%
Results - TMSR Meander Valley Pink Ride (19-05-2012)
No. Rider Horse Place Time Leg Speeds Total
Km/Hr
H/R bpm
Heavyweight
199 Dennis Foley Jnr Jack 1 (BC) 4:38:00 17.9, 16.6 17.27 40, 52, 53 (Avg:52)
48 Alison Colbeck Malricia Salibah 2 6:30:00 12.3, 12.2 12.31 48, 46, 57 (Avg:51)
218 Tony Matthews Jezabelle Mushodoe 3 6:51:00 12.7, 10.7 11.68 32, 36, 49 (Avg:42)
257 Sarah Watson Walford Pride of Fleur 4 7:22:00 10.3, 11.3 10.86 29, 34, 44 (Avg:39)
82 Mark Dunn Bella 5 7:25:00 11.8, 9.8 10.79 36, 43, 48 (Avg:45)
178 Alf Barnes Cranbrook Park Tank 6 7:34:00 11.0, 10.1 10.57 33, 39, 59 (Avg:49)
K Greg Henry Bellawongarah Beau 7 7:37:00 11.7, 9.4 10.50 53, 52, 57 (Avg:54)
171 Craig Wall Undurra Braveheart Lame L2 0:00:00 19.5, 16.5 - 38, 47, 50 (Avg:48)
18 Sheleah Astell Braveheart Charlie Withdrawn L1 0:00:00 - - 44, 40 (Avg:40)
192 Tim Matthews Jezabelle Serenada Withdrawn L1 0:00:00 - - 38, 38 (Avg:38)
45 Denise Williams Valley Springs Summer Haze Lame L1 0:00:00 14.7 - 40, 45 (Avg:45)
Middleweight
132 Carolyn Foley-Jones Vandiemen Cheeky 1 (BC) 4:25:00 19.6, 16.7 18.11 54, 42, 50 (Avg:46)
207 Graham Bucknell Kairo 2 5:01:00 17.9, 14.3 15.95 33, 50, 55 (Avg:52)
92 Blaine Astell Splitters Creek Cypress 3 5:42:00 13.2, 14.9 14.04 33, 42, 48 (Avg:45)
230 Jodie Clarke Bluegrass Geronimo 3 5:42:00 15.0, 13.1 14.04 36, 47, 48 (Avg:47)
216 David Evelyn Kalody Park Peppermint Twist 3 5:42:00 15.1, 13.0 14.04 31, 36, 40 (Avg:38)
57 Tania Jago Rivergum Ripper 6 5:47:00 15.0, 12.7 13.83 33, 40, 43 (Avg:41)
101 Wendy Rand Shayelle Memphis 7 6:06:00 13.2, 12.9 13.11 37, 39, 40 (Avg:39)
142 Shayne Williams Shayelle Chocolate 7 6:06:00 13.2, 12.9 13.11 33, 43, 46 (Avg:44)
102 Keryn Mahoney Tonki Dee Boo Pricilla 9 6:17:00 13.8, 11.7 12.73 38, 42, 46 (Avg:44)
94 Natalie Humphries Duo Park Almighty 10 6:26:00 12.2, 12.6 12.44 36, 46, 54 (Avg:50)
247 David Pilgrim Tierview Cloud Danczer 11 6:30:00 12.3, 12.2 12.31 46, 48, 54 (Avg:51)
256 Wendy Smith Sir Angus of Seven Oaks 11 6:30:00 12.9, 11.7 12.31 44, 49, 59 (Avg:54)
255 Cheryle Wall Blackwood Springs Rhapsody 11 6:30:00 12.9, 11.7 12.31 35, 42, 51 (Avg:46)
3 Brenda Hardwicke Cassata Royale 14 6:31:00 13.4, 11.3 12.28 47, 42, 50 (Avg:46)
266 Sarah Wells Performance Park Riverdance 14 6:31:00 13.3, 11.3 12.28 46, 41, 54 (Avg:47)
43 Bonny Burgess Rythem 16 6:48:00 14.9, 9.7 11.76 40, 40, 43 (Avg:41)
68 Janine Parr Harmere Natez 16 6:48:00 12.4, 11.1 11.76 40, 41, 42 (Avg:41)
152 Anna Feely Black Heart Othello 18 7:25:00 11.8, 9.8 10.79 42, 42, 50 (Avg:46)
177 Penny Barnes Mrs Boyde 19 7:34:00 11.0, 10.1 10.57 35, 40, 46 (Avg:43)
261 Lynette Walker Highland View Barbara 19 7:34:00 11.0, 10.1 10.57 32, 50, 52 (Avg:51)
146 Ricky Febey Bundy 21 7:37:00 10.3, 10.6 10.50 40, 48, 59 (Avg:53)
15 Sonia Brown-Cordell Highland View C Lame L2 0:00:00 12.5, 22.2 - 28, 40, 40 (Avg:40)
219 Robert Crowe Johean Johan Lame L2 0:00:00 12.7, 9.4 - 48, 51, 58 (Avg:54)
165 Fletch Fletcher Bellarine Sheffield Heart Rate L1 0:00:00 10.3 - 34, 68 (Avg:68)
179 Debbie Grull Lauralyn Notorious Withdrawn L1 0:00:00 - - 32, 41 (Avg:41)
175 Steve Wilson Echo Phoebe Lame L1 0:00:00 15.6 - 36, 37 (Avg:37)
Lightweight
83 Angie Clark Cameo Bucephalus 1 (BC) 5:14:00 15.6, 14.9 15.29 35, 46, 52 (Avg:49)
148 Jeremy Robertson Larabi Bint Fantasy 2 5:43:00 13.8, 14.1 13.99 30, 46, 57 (Avg:51)
19 Sonia Hodgetts Highland View Deputy 3 6:06:00 13.2, 12.9 13.11 40, 44, 53 (Avg:48)
16 Margaret Richardson Bold Nickel 3 6:06:00 13.2, 12.9 13.11 30, 40, 43 (Avg:41)
20 Jodi Smith Hyksos Good As Gold 3 6:06:00 13.2, 12.9 13.11 30, 40, 44 (Avg:42)
181a Brenda Blucher Coolawanya Estasharr 6 6:17:00 13.8, 11.7 12.73 33, 45, 48 (Avg:46)
22 Angela Hawks Cedar Ridge Trojan 7 6:26:00 12.2, 12.6 12.44 37, 50, 58 (Avg:54)
L Tracey Nutting Acaciavej Shadowy Prince 8 6:48:00 12.4, 11.1 11.76 37, 39, 46 (Avg:42)
231 Andrew Matthews Shemali Silver Sherif 9 6:51:00 12.7, 10.7 11.68 44, 41, 48 (Avg:44)
54 Brooke McKenna Duke 10 7:22:00 10.3, 11.3 10.86 35, 44, 48 (Avg:46)
149 Sarina Tuck Tierview Zaria Heart Rate L1 0:00:00 12.4 - 46, 64 (Avg:64)
26 Narelle Sward Pallano Kisha Lame P/R 0:00:00 - - 44
Junior
107 Samantha Sward Vandieman Princess Ellie 1 (BC) 4:25:00 19.6, 16.7 18.11 42, 48, 47 (Avg:47)
74. Felicity Perry Sandine Sharmadal 2 6:26:00 12.2, 12.6 12.44 58, 39, 50 (Avg:44)
135 Breaana Smith Glendhu Calypso 3 6:30:00 12.9, 11.7 12.31 40, 46, 50 (Avg:48)
133 Margaret Streeter Lauralyn Ta'bi 3 6:30:00 12.3, 12.2 12.31 34, 39, 42 (Avg:40)
154 Sarah Parker Eleazar Noble 5 6:32:00 12.5, 11.9 12.24 37, 45, 56 (Avg:50)
29 Danielle Taylor Highland View Steel 6 7:34:00 11.0, 10.1 10.57 34, 39, 44 (Avg:41)
260 Laura Febey Rocky 7 7:37:00 10.3, 10.6 10.50 41, 46, 50 (Avg:48)
125 Brooke Brown-Cordell Yondover Ridge Mojo Lame L2 0:00:00 19.6, 18.7 - 30, 42, 50 (Avg:46)
209 Grace Huxtable Kaywana Mystique Lame L2 0:00:00 11.0, 10.1 - 36, 46, 52 (Avg:49)
203 Ellie Woodhouse Die Kinder Junrei Heart Rate L2 0:00:00 14.9, 13.4 - 40, 48, 67 (Avg:57)
47 Hannah Colbeck Nabowla Nook Nite Lame L1 0:00:00 12.3 - 40, 38 (Avg:38)
237 Khalan Ford Highland View JJ Withdrawn L1 0:00:00 - - 36, 46 (Avg:46)